Time;durP1;ratioP1;P1;durP2;ratioP2;P2;SDS_P1;SDS_P2;PMS_P1;PMS_P2;Temp;Humidity;BMP_temperature;BMP_pressure;BME280_temperature;BME280_humidity;BME280_pressure;Samples;Min_cycle;Max_cycle;Signal;HPM_P1;HPM_P2
2022/03/16 00:01:24;;;;;;;;;5.00;5.00;;;;;21.63;39.56;101679.56;5060471;28;51733;-52
2022/03/16 00:03:49;;;;;;;;;7.00;5.50;;;;;21.61;40.07;101670.66;5063630;28;51795;-49
2022/03/16 00:06:15;;;;;;;;;6.00;6.00;;;;;21.60;40.01;101668.97;5062204;28;51271;-49
2022/03/16 00:08:40;;;;;;;;;7.00;6.00;;;;;21.57;40.11;101669.34;5062622;28;51784;-49
2022/03/16 00:11:05;;;;;;;;;3.00;3.00;;;;;21.55;39.96;101663.22;5060721;28;51399;-51
2022/03/16 00:13:33;;;;;;;;;5.00;5.00;;;;;21.54;40.09;101667.03;5064239;27;51571;-49
2022/03/16 00:15:59;;;;;;;;;7.00;6.25;;;;;21.52;39.65;101672.75;5060572;28;51021;-49
2022/03/16 00:18:24;;;;;;;;;7.25;6.00;;;;;21.51;39.52;101668.31;5066873;28;51855;-49
2022/03/16 00:20:49;;;;;;;;;7.00;7.00;;;;;21.50;39.59;101665.75;5060418;27;51042;-52
2022/03/16 00:23:16;;;;;;;;;4.75;4.50;;;;;21.48;40.02;101665.97;5063857;27;50976;-53
2022/03/16 00:25:41;;;;;;;;;5.00;5.00;;;;;21.47;40.21;101669.78;5057878;27;51315;-47
2022/03/16 00:28:07;;;;;;;;;1.75;1.75;;;;;21.47;39.68;101666.19;5065645;28;51031;-50
2022/03/16 00:30:32;;;;;;;;;5.25;5.25;;;;;21.46;39.92;101664.47;5068897;27;51359;-51
2022/03/16 00:32:58;;;;;;;;;5.75;5.00;;;;;21.43;39.83;101668.50;5065998;27;51384;-52
2022/03/16 00:35:23;;;;;;;;;4.00;4.00;;;;;21.42;40.00;101672.31;5061435;28;51299;-50
2022/03/16 00:37:48;;;;;;;;;5.50;5.50;;;;;21.41;39.75;101662.34;5059245;27;51199;-47
2022/03/16 00:40:14;;;;;;;;;4.50;3.50;;;;;21.39;39.84;101658.09;5062579;27;51071;-50
2022/03/16 00:42:39;;;;;;;;;6.25;5.25;;;;;21.39;39.84;101666.38;5069210;28;51078;-53
2022/03/16 00:45:05;;;;;;;;;6.00;5.00;;;;;21.37;39.63;101665.75;5067323;27;51283;-50
2022/03/16 00:47:31;;;;;;;;;4.25;4.25;;;;;21.35;39.83;101660.41;5069616;28;51164;-48
2022/03/16 00:49:56;;;;;;;;;5.00;4.50;;;;;21.35;40.19;101660.41;5066201;27;50977;-46
2022/03/16 00:52:21;;;;;;;;;4.25;4.25;;;;;21.33;40.21;101655.09;5072793;28;51941;-50
2022/03/16 00:54:47;;;;;;;;;5.00;5.00;;;;;21.33;39.87;101654.25;5073498;27;51037;-47
2022/03/16 00:57:12;;;;;;;;;5.00;4.00;;;;;21.32;39.85;101650.66;5067477;27;51089;-51
2022/03/16 00:59:39;;;;;;;;;6.00;4.25;;;;;21.31;40.20;101648.97;5059951;28;51136;-47
2022/03/16 01:02:05;;;;;;;;;3.50;3.50;;;;;21.30;40.18;101650.03;5068612;28;52482;-49
2022/03/16 01:04:30;;;;;;;;;4.00;4.00;;;;;21.28;39.59;101643.03;5062878;28;51187;-48
2022/03/16 01:06:55;;;;;;;;;4.00;4.00;;;;;21.26;39.93;101643.25;5074418;27;51268;-47
2022/03/16 01:09:21;;;;;;;;;4.50;3.75;;;;;21.25;39.71;101635.97;5066040;27;51400;-50
2022/03/16 01:11:46;;;;;;;;;5.00;4.00;;;;;21.25;40.33;101638.72;5066748;28;51727;-50
2022/03/16 01:14:12;;;;;;;;;4.50;4.50;;;;;21.23;40.03;101635.34;5057865;28;51042;-51
2022/03/16 01:16:39;;;;;;;;;5.75;5.00;;;;;21.23;40.34;101628.97;5065617;28;51116;-47
2022/03/16 01:19:05;;;;;;;;;4.00;4.00;;;;;21.21;39.81;101631.09;5064206;28;51327;-47
2022/03/16 01:21:31;;;;;;;;;5.00;4.00;;;;;21.20;40.18;101627.50;5073250;28;51198;-47
2022/03/16 01:23:57;;;;;;;;;3.00;3.00;;;;;21.19;40.22;101627.72;5059876;28;51303;-51
2022/03/16 01:26:22;;;;;;;;;4.00;4.00;;;;;21.19;39.93;101622.19;5062131;28;51208;-48
2022/03/16 01:28:47;;;;;;;;;5.00;4.00;;;;;21.16;40.28;101615.22;5062377;27;51719;-49
2022/03/16 01:31:13;;;;;;;;;5.00;3.75;;;;;21.18;39.72;101617.75;5074158;28;51807;-52
2022/03/16 01:33:38;;;;;;;;;3.00;3.00;;;;;21.15;40.16;101613.47;5072784;27;51017;-51
2022/03/16 01:36:04;;;;;;;;;4.50;4.25;;;;;21.14;39.77;101600.78;5062103;27;51245;-53
2022/03/16 01:38:29;;;;;;;;;5.25;3.75;;;;;21.13;40.39;101599.06;5070650;28;51214;-51
2022/03/16 01:40:56;;;;;;;;;3.50;3.50;;;;;21.13;40.28;101598.22;5069350;27;51969;-49
2022/03/16 01:43:22;;;;;;;;;4.50;4.50;;;;;21.11;39.72;101595.69;5070306;27;51551;-50
2022/03/16 01:45:49;;;;;;;;;4.00;3.00;;;;;21.10;39.96;101599.50;5063168;28;51183;-50
2022/03/16 01:48:15;;;;;;;;;4.25;3.25;;;;;21.10;40.37;101605.00;5065308;27;51047;-50
2022/03/16 01:50:40;;;;;;;;;3.00;3.00;;;;;21.09;39.91;101599.72;5068013;28;51426;-50
2022/03/16 01:53:06;;;;;;;;;3.75;3.00;;;;;21.08;40.32;101600.78;5060015;27;51161;-50
2022/03/16 01:55:31;;;;;;;;;5.00;4.00;;;;;21.07;39.92;101601.84;5066114;28;52642;-48
2022/03/16 01:57:57;;;;;;;;;5.25;5.00;;;;;21.06;39.88;101616.66;5069498;27;51179;-49
2022/03/16 02:00:23;;;;;;;;;5.25;5.25;;;;;21.03;40.18;101609.66;5056777;28;51132;-50
2022/03/16 02:02:48;;;;;;;;;2.50;2.50;;;;;21.04;40.29;101614.94;5064513;28;51105;-47
2022/03/16 02:05:13;;;;;;;;;3.00;3.00;;;;;21.03;40.31;101604.97;5067010;27;51436;-49
2022/03/16 02:07:42;;;;;;;;;3.75;3.75;;;;;21.03;40.22;101609.66;5058397;27;50967;-48
2022/03/16 02:10:07;;;;;;;;;4.00;3.25;;;;;21.02;39.89;101610.69;5067233;27;51045;-48
2022/03/16 02:12:46;;;;;;;;;3.25;3.25;;;;;21.01;39.90;101604.34;5063865;27;51140;-51
2022/03/16 02:15:12;;;;;;;;;2.00;2.00;;;;;21.00;40.29;101607.31;5066456;28;51308;-51
2022/03/16 02:17:38;;;;;;;;;6.50;5.00;;;;;20.99;39.77;101609.22;5062028;28;51166;-49
2022/03/16 02:20:05;;;;;;;;;4.00;4.00;;;;;20.99;39.93;101603.72;5057650;27;51258;-52
2022/03/16 02:22:34;;;;;;;;;5.00;4.00;;;;;20.99;40.22;101606.47;5058336;27;51424;-49
2022/03/16 02:25:00;;;;;;;;;4.00;4.00;;;;;20.96;40.22;101601.38;5063153;27;51191;-51
2022/03/16 02:27:25;;;;;;;;;3.25;3.25;;;;;20.96;40.28;101597.78;5070063;28;51058;-48
2022/03/16 02:29:51;;;;;;;;;4.00;2.00;;;;;20.96;39.94;101595.03;5070573;27;51816;-47
2022/03/16 02:32:16;;;;;;;;;4.50;4.00;;;;;20.94;39.95;101586.09;5065707;27;51095;-50
2022/03/16 02:34:41;;;;;;;;;3.25;3.00;;;;;20.93;39.93;101592.66;5061907;28;51142;-51
2022/03/16 02:37:07;;;;;;;;;4.50;4.50;;;;;20.93;40.16;101588.00;5070025;27;51358;-51
2022/03/16 02:39:32;;;;;;;;;4.00;3.00;;;;;20.93;40.16;101587.16;5064533;28;51072;-50
2022/03/16 02:41:57;;;;;;;;;3.25;3.00;;;;;20.92;40.31;101577.19;5063439;28;51143;-52
2022/03/16 02:44:23;;;;;;;;;3.75;3.75;;;;;20.91;40.28;101581.00;5067785;28;51170;-51
2022/03/16 02:46:49;;;;;;;;;3.00;2.00;;;;;20.91;40.52;101578.25;5059134;28;50976;-50
2022/03/16 02:49:16;;;;;;;;;5.50;3.25;;;;;20.90;40.19;101590.34;5056984;28;51024;-47
2022/03/16 02:51:42;;;;;;;;;4.25;3.25;;;;;20.89;40.37;101577.63;5068228;27;50962;-47
2022/03/16 02:54:07;;;;;;;;;3.00;3.00;;;;;20.88;40.00;101578.69;5059203;28;51127;-47
2022/03/16 02:56:33;;;;;;;;;3.50;2.75;;;;;20.88;40.13;101576.78;5066599;28;51215;-47
2022/03/16 02:58:58;;;;;;;;;2.25;2.25;;;;;20.88;40.44;101581.44;5062534;28;52009;-51
2022/03/16 03:01:23;;;;;;;;;4.00;4.00;;;;;20.87;40.06;101571.47;5071050;27;51190;-50
2022/03/16 03:03:49;;;;;;;;;3.00;3.00;;;;;20.85;40.37;101574.44;5059182;28;51293;-50
2022/03/16 03:06:14;;;;;;;;;5.50;4.25;;;;;20.84;40.09;101567.25;5065814;28;51351;-53
2022/03/16 03:08:39;;;;;;;;;3.00;3.00;;;;;20.84;39.98;101578.25;5071318;28;52170;-50
2022/03/16 03:11:04;;;;;;;;;4.75;4.75;;;;;20.84;40.08;101581.00;5066265;28;51163;-50
2022/03/16 03:13:30;;;;;;;;;3.50;3.50;;;;;20.83;40.10;101573.78;5073534;28;51139;-51
2022/03/16 03:15:55;;;;;;;;;4.00;4.00;;;;;20.83;40.09;101575.69;5073513;27;51343;-49
2022/03/16 03:18:21;;;;;;;;;3.00;3.00;;;;;20.82;40.58;101576.75;5070115;27;51182;-51
2022/03/16 03:20:46;;;;;;;;;3.25;3.00;;;;;20.80;40.46;101584.38;5068231;28;51809;-49
2022/03/16 03:23:11;;;;;;;;;4.00;4.00;;;;;20.80;39.97;101576.09;5068116;28;51217;-50
2022/03/16 03:25:37;;;;;;;;;5.00;5.00;;;;;20.79;40.28;101574.41;5064294;27;51412;-50
2022/03/16 03:28:02;;;;;;;;;5.00;3.00;;;;;20.78;40.28;101584.56;5059177;28;51772;-48
2022/03/16 03:30:28;;;;;;;;;4.00;3.50;;;;;20.77;40.48;101577.38;5063061;27;51118;-48
2022/03/16 03:32:53;;;;;;;;;5.75;5.75;;;;;20.77;40.00;101571.88;5065168;28;51014;-49
2022/03/16 03:35:19;;;;;;;;;4.00;3.00;;;;;20.75;40.52;101569.31;5069482;28;51054;-48
2022/03/16 03:37:44;;;;;;;;;5.00;4.25;;;;;20.77;40.47;101573.78;5065438;28;51278;-48
2022/03/16 03:40:10;;;;;;;;;5.25;4.00;;;;;20.75;40.14;101574.84;5068127;28;51595;-48
2022/03/16 03:42:35;;;;;;;;;3.75;3.25;;;;;20.74;40.48;101589.66;5059223;28;51287;-51
2022/03/16 03:45:01;;;;;;;;;4.25;4.25;;;;;20.74;40.36;101591.56;5071353;28;51453;-50
2022/03/16 03:47:26;;;;;;;;;4.50;4.50;;;;;20.73;40.62;101579.66;5073868;28;51783;-48
2022/03/16 03:49:51;;;;;;;;;3.25;3.25;;;;;20.73;39.95;101587.94;5060257;28;51101;-47
2022/03/16 03:52:16;;;;;;;;;4.00;3.75;;;;;20.72;40.22;101586.25;5062066;28;51123;-51
2022/03/16 03:54:42;;;;;;;;;4.25;4.25;;;;;20.72;39.98;101590.91;5065119;27;51054;-47
2022/03/16 03:57:07;;;;;;;;;4.25;3.25;;;;;20.70;40.36;101588.34;5075613;27;51719;-48
2022/03/16 03:59:33;;;;;;;;;3.75;3.75;;;;;20.71;40.59;101586.44;5072107;27;52327;-51
2022/03/16 04:01:58;;;;;;;;;5.50;4.00;;;;;20.70;40.16;101582.84;5071054;28;51105;-49
2022/03/16 04:04:24;;;;;;;;;4.25;4.25;;;;;20.69;40.49;101575.66;5067746;28;51199;-51
2022/03/16 04:06:49;;;;;;;;;3.00;3.00;;;;;20.68;40.50;101584.97;5066237;28;51641;-50
2022/03/16 04:09:15;;;;;;;;;4.50;4.00;;;;;20.67;40.27;101575.00;5076488;28;51088;-46
2022/03/16 04:11:40;;;;;;;;;3.00;3.00;;;;;20.68;40.34;101575.84;5074108;28;51117;-48
2022/03/16 04:14:06;;;;;;;;;4.25;4.25;;;;;20.68;40.11;101573.09;5068227;27;51192;-47
2022/03/16 04:16:31;;;;;;;;;3.75;3.75;;;;;20.67;40.50;101565.91;5071249;27;51709;-48
2022/03/16 04:18:57;;;;;;;;;3.00;3.00;;;;;20.66;40.21;101561.47;5062817;28;51043;-47
2022/03/16 04:21:22;;;;;;;;;5.25;4.50;;;;;20.66;40.13;101554.03;5063043;28;51052;-47
2022/03/16 04:23:49;;;;;;;;;5.75;4.75;;;;;20.65;40.30;101546.84;5068643;28;51348;-49
2022/03/16 04:26:15;;;;;;;;;3.00;3.00;;;;;20.65;40.21;101549.59;5061869;27;51792;-52
2022/03/16 04:28:41;;;;;;;;;3.50;3.50;;;;;20.65;40.45;101546.84;5062727;27;51139;-53
2022/03/16 04:31:06;;;;;;;;;3.00;3.00;;;;;20.64;40.58;101545.16;5067498;27;51138;-47
2022/03/16 04:33:32;;;;;;;;;4.00;4.00;;;;;20.63;40.21;101548.94;5065342;28;50887;-52
2022/03/16 04:35:57;;;;;;;;;3.50;3.50;;;;;20.62;40.25;101544.47;5057965;28;51978;-50
2022/03/16 04:38:23;;;;;;;;;4.50;3.25;;;;;20.62;40.81;101547.22;5058392;28;51121;-51
2022/03/16 04:40:48;;;;;;;;;3.00;3.00;;;;;20.61;40.67;101548.28;5083365;27;51131;-51
2022/03/16 04:43:14;;;;;;;;;5.00;5.00;;;;;20.61;40.55;101533.69;5074041;27;51075;-51
2022/03/16 04:45:40;;;;;;;;;3.50;3.50;;;;;20.61;40.39;101530.94;5067883;27;51950;-50
2022/03/16 04:48:11;;;;;;;;;4.00;4.00;;;;;20.60;40.25;101530.09;5067615;28;51001;-48
2022/03/16 04:50:38;;;;;;;;;4.00;4.00;;;;;20.59;40.42;101531.13;5066472;28;51493;-51
2022/03/16 04:53:03;;;;;;;;;3.00;3.00;;;;;20.59;40.10;101527.53;5070396;28;51338;-51
2022/03/16 04:55:28;;;;;;;;;5.00;4.00;;;;;20.59;40.53;101530.28;5062929;28;51789;-52
2022/03/16 04:57:54;;;;;;;;;3.00;3.00;;;;;20.59;40.29;101536.66;5057153;28;51180;-50
2022/03/16 05:00:20;;;;;;;;;4.50;4.50;;;;;20.58;40.49;101543.22;5074373;28;51222;-52
2022/03/16 05:02:46;;;;;;;;;2.50;2.50;;;;;20.58;40.01;101542.38;5066515;27;51140;-50
2022/03/16 05:05:11;;;;;;;;;3.00;3.00;;;;;20.56;40.18;101539.81;5064691;28;52182;-49
2022/03/16 05:07:38;;;;;;;;;4.00;4.00;;;;;20.57;40.24;101546.19;5065093;28;51136;-46
2022/03/16 05:10:05;;;;;;;;;3.00;3.00;;;;;20.56;40.54;101541.72;5063452;28;51108;-49
2022/03/16 05:12:40;;;;;;;;;3.00;3.00;;;;;20.55;40.56;101529.03;5070462;27;51077;-52
2022/03/16 05:15:08;;;;;;;;;3.00;3.00;;;;;20.54;40.38;101533.69;5063994;28;51131;-48
2022/03/16 05:17:34;;;;;;;;;3.00;3.00;;;;;20.54;40.54;101522.66;5073786;28;51107;-48
2022/03/16 05:20:00;;;;;;;;;3.00;3.00;;;;;20.54;40.13;101527.31;5074953;27;51174;-52
2022/03/16 05:22:25;;;;;;;;;3.50;3.50;;;;;20.53;40.83;101526.47;5070975;28;51169;-51
2022/03/16 05:24:50;;;;;;;;;4.50;3.75;;;;;20.53;40.60;101528.34;5061638;28;51808;-52
2022/03/16 05:27:19;;;;;;;;;3.00;3.00;;;;;20.52;40.32;101530.25;5058691;27;51135;-52
2022/03/16 05:29:44;;;;;;;;;4.75;4.75;;;;;20.52;40.69;101533.00;5076083;27;51238;-49
2022/03/16 05:32:10;;;;;;;;;3.00;3.00;;;;;20.51;40.31;101545.06;5066897;28;51086;-47
2022/03/16 05:34:35;;;;;;;;;4.75;4.00;;;;;20.51;40.45;101544.22;5070946;27;50944;-49
2022/03/16 05:37:00;;;;;;;;;3.00;3.00;;;;;20.51;40.37;101552.50;5072138;27;51126;-51
2022/03/16 05:39:26;;;;;;;;;5.75;4.25;;;;;20.50;40.09;101556.28;5064869;28;51287;-52
2022/03/16 05:41:51;;;;;;;;;2.75;2.25;;;;;20.49;40.28;101557.34;5063546;28;51312;-51
2022/03/16 05:44:16;;;;;;;;;4.00;2.25;;;;;20.47;40.41;101557.56;5071510;28;52042;-51
2022/03/16 05:46:42;;;;;;;;;3.50;3.50;;;;;20.49;40.57;101562.84;5065397;27;51112;-49
2022/03/16 05:49:07;;;;;;;;;3.25;3.25;;;;;20.47;40.19;101565.81;5065031;27;51155;-49
2022/03/16 05:51:32;;;;;;;;;4.25;3.50;;;;;20.46;40.41;101564.97;5060979;27;51176;-51
2022/03/16 05:53:58;;;;;;;;;2.25;2.00;;;;;20.46;40.42;101553.13;5060626;28;51109;-51
2022/03/16 05:56:23;;;;;;;;;5.50;5.00;;;;;20.46;40.59;101553.13;5065618;28;50899;-48
2022/03/16 05:58:48;;;;;;;;;4.00;2.25;;;;;20.45;40.68;101554.16;5062143;27;51151;-48
2022/03/16 06:01:14;;;;;;;;;5.00;3.75;;;;;20.45;40.71;101563.28;5068142;28;51345;-48
2022/03/16 06:03:39;;;;;;;;;5.00;5.00;;;;;20.45;40.46;101567.94;5059362;28;51181;-57
2022/03/16 06:06:05;;;;;;;;;6.50;6.50;;;;;20.45;40.72;101562.44;5066209;28;51097;-52
2022/03/16 06:08:30;;;;;;;;;6.75;6.75;;;;;20.44;40.50;101564.34;5062315;27;51155;-53
2022/03/16 06:10:55;;;;;;;;;8.00;8.00;;;;;20.43;40.83;101568.16;5063728;28;51330;-54
2022/03/16 06:13:21;;;;;;;;;15.50;14.25;;;;;20.42;40.64;101568.28;5057874;27;52682;-52
2022/03/16 06:15:47;;;;;;;;;16.50;13.75;;;;;20.41;40.74;101577.59;5065310;27;51052;-54
2022/03/16 06:18:12;;;;;;;;;19.75;14.50;;;;;20.39;40.85;101575.06;5064830;28;51197;-53
2022/03/16 06:20:38;;;;;;;;;11.50;10.75;;;;;20.37;40.39;101573.56;5062534;28;51357;-49
2022/03/16 06:23:05;;;;;;;;;15.25;13.50;;;;;20.35;40.72;101567.44;5070716;28;51681;-52
2022/03/16 06:25:33;;;;;;;;;17.25;14.75;;;;;20.33;40.60;101564.03;5073684;28;51439;-51
2022/03/16 06:27:58;;;;;;;;;17.00;16.25;;;;;20.31;40.53;101566.13;5063431;28;51175;-53
2022/03/16 06:30:24;;;;;;;;;15.00;13.75;;;;;20.28;40.66;101575.63;5075646;27;51450;-52
2022/03/16 06:32:49;;;;;;;;;13.25;11.75;;;;;20.26;40.79;101582.41;5065901;27;51412;-51
2022/03/16 06:35:16;;;;;;;;;16.25;15.50;;;;;20.23;40.69;101583.66;5063513;28;51629;-52
2022/03/16 06:37:42;;;;;;;;;17.50;14.75;;;;;20.21;40.46;101584.91;5069189;28;51618;-51
2022/03/16 06:40:08;;;;;;;;;17.50;15.75;;;;;20.18;40.97;101577.91;5070367;28;51168;-48
2022/03/16 06:42:33;;;;;;;;;14.00;12.75;;;;;20.21;41.42;101573.88;5068434;28;52187;-50
2022/03/16 06:44:59;;;;;;;;;12.50;10.75;;;;;20.26;41.40;101582.41;5071876;27;51135;-49
2022/03/16 06:47:24;;;;;;;;;14.75;10.50;;;;;20.33;41.29;101580.53;5086637;27;51164;-48
2022/03/16 06:49:50;;;;;;;;;8.75;7.00;;;;;20.40;41.10;101593.25;5067283;28;51436;-50
2022/03/16 06:52:15;;;;;;;;;8.00;7.00;;;;;20.49;41.17;101591.22;5072722;27;51947;-50
2022/03/16 06:54:40;;;;;;;;;8.00;8.00;;;;;20.58;41.14;101603.78;5067295;28;51114;-47
2022/03/16 06:57:06;;;;;;;;;6.00;6.00;;;;;20.66;40.98;101592.59;5069103;27;51291;-49
2022/03/16 06:59:31;;;;;;;;;7.25;7.00;;;;;20.75;40.88;101607.03;5068005;28;51111;-50
2022/03/16 07:01:57;;;;;;;;;7.00;6.25;;;;;20.84;41.20;101608.56;5067587;28;51020;-48
2022/03/16 07:04:22;;;;;;;;;5.50;5.50;;;;;20.91;41.09;101598.38;5064800;27;51033;-49
2022/03/16 07:06:47;;;;;;;;;8.00;6.75;;;;;21.00;41.09;101601.81;5069373;27;51139;-50
2022/03/16 07:09:13;;;;;;;;;8.00;7.00;;;;;21.10;41.27;101596.75;5071542;28;51068;-47
2022/03/16 07:11:38;;;;;;;;;6.25;6.25;;;;;21.18;40.82;101590.19;5081752;27;51846;-51
2022/03/16 07:16:47;;;;;;;;;5.75;4.75;;;;;21.35;40.98;101594.25;5068873;28;51200;-49
2022/03/16 07:19:13;;;;;;;;;5.75;5.75;;;;;21.37;40.75;101597.69;5071581;27;51277;-53
2022/03/16 07:21:38;;;;;;;;;5.00;4.25;;;;;21.36;41.12;101589.59;5072902;27;51741;-49
2022/03/16 07:24:05;;;;;;;;;6.25;4.75;;;;;21.32;41.10;101590.03;5067795;27;51353;-48
2022/03/16 07:26:30;;;;;;;;;5.25;5.00;;;;;21.28;41.29;101604.44;5062905;27;51139;-50
2022/03/16 07:28:56;;;;;;;;;6.75;6.50;;;;;21.26;41.95;101606.56;5075358;27;51445;-50
2022/03/16 07:31:22;;;;;;;;;5.25;5.25;;;;;21.22;42.37;101605.25;5068971;27;51970;-52
2022/03/16 07:33:47;;;;;;;;;6.00;6.00;;;;;21.19;42.47;101608.44;5062622;27;52565;-51
2022/03/16 07:36:13;;;;;;;;;7.00;7.00;;;;;21.16;42.11;101601.44;5070876;28;51144;-50
2022/03/16 07:38:38;;;;;;;;;7.25;6.00;;;;;21.18;42.30;101603.97;5060510;28;51261;-50
2022/03/16 07:41:04;;;;;;;;;9.25;6.50;;;;;21.21;42.78;101601.63;5064892;28;51117;-48
2022/03/16 07:43:30;;;;;;;;;6.50;6.00;;;;;21.26;42.65;101610.19;5056993;28;51132;-48
2022/03/16 07:45:56;;;;;;;;;7.00;7.00;;;;;21.33;42.75;101596.38;5055745;28;51286;-48
2022/03/16 07:48:22;;;;;;;;;7.25;6.50;;;;;21.39;42.22;101601.06;5063707;28;51273;-52
2022/03/16 07:50:47;;;;;;;;;7.00;7.00;;;;;21.45;42.43;101607.63;5066615;28;52278;-52
2022/03/16 07:53:13;;;;;;;;;11.75;10.00;;;;;21.46;42.69;101607.41;5061764;28;51104;-51
2022/03/16 07:55:39;;;;;;;;;10.25;7.00;;;;;21.45;42.97;101608.47;5063671;28;51291;-55
2022/03/16 07:58:05;;;;;;;;;9.50;8.50;;;;;21.42;43.17;101606.16;5062698;28;51104;-50
2022/03/16 08:00:31;;;;;;;;;10.50;9.50;;;;;21.37;42.78;101594.94;5067663;27;51875;-52
2022/03/16 08:02:59;;;;;;;;;11.25;9.00;;;;;21.33;42.62;101600.00;5058331;28;51587;-53
2022/03/16 08:05:24;;;;;;;;;9.25;8.75;;;;;21.28;43.13;101594.28;5068229;27;51435;-53
2022/03/16 08:07:50;;;;;;;;;11.00;9.25;;;;;21.23;42.89;101593.16;5064527;28;51041;-52
2022/03/16 08:10:16;;;;;;;;;12.75;8.00;;;;;21.18;43.38;101602.06;5065230;28;51847;-53
2022/03/16 08:12:41;;;;;;;;;7.25;7.25;;;;;21.14;43.50;101586.16;5071645;27;51191;-50
2022/03/16 08:15:07;;;;;;;;;7.25;7.25;;;;;21.11;43.19;101589.31;5063336;28;50970;-53
2022/03/16 08:17:33;;;;;;;;;10.25;7.00;;;;;21.08;43.26;101581.50;5063607;27;51017;-52
2022/03/16 08:19:58;;;;;;;;;7.00;6.75;;;;;21.04;43.12;101579.13;5064651;28;52210;-52
2022/03/16 08:22:25;;;;;;;;;8.00;7.00;;;;;21.03;43.79;101587.59;5064078;28;51334;-50
2022/03/16 08:24:51;;;;;;;;;6.25;6.00;;;;;20.98;43.79;101582.75;5059820;28;51183;-53
2022/03/16 08:27:17;;;;;;;;;8.00;7.50;;;;;20.95;43.47;101579.56;5054630;28;51908;-51
2022/03/16 08:29:43;;;;;;;;;9.75;8.00;;;;;20.94;43.48;101583.34;5056808;28;51764;-51
2022/03/16 08:32:08;;;;;;;;;7.50;6.25;;;;;20.92;43.42;101580.78;5055113;27;53046;-53
2022/03/16 08:34:33;;;;;;;;;9.00;7.25;;;;;20.93;43.64;101585.25;5065348;28;51185;-52
2022/03/16 08:37:00;;;;;;;;;8.75;6.75;;;;;20.93;43.19;101579.75;5059065;27;51094;-50
2022/03/16 08:39:26;;;;;;;;;10.25;8.50;;;;;20.94;43.62;101578.69;5067878;27;51973;-52
2022/03/16 08:41:52;;;;;;;;;11.00;7.75;;;;;20.93;43.64;101582.50;5065684;28;51208;-47
2022/03/16 08:44:17;;;;;;;;;7.50;7.50;;;;;20.93;43.36;101584.41;5067942;27;51120;-49
2022/03/16 08:46:43;;;;;;;;;8.00;6.50;;;;;20.92;43.49;101583.56;5061559;27;51333;-49
2022/03/16 08:49:08;;;;;;;;;9.00;9.00;;;;;20.93;43.25;101587.16;5059337;28;51841;-51
2022/03/16 08:51:33;;;;;;;;;9.75;8.00;;;;;20.93;43.66;101603.69;5058388;28;51584;-54
2022/03/16 08:53:59;;;;;;;;;6.50;6.50;;;;;20.93;43.44;101603.69;5069357;27;51571;-56
2022/03/16 08:56:24;;;;;;;;;6.75;6.75;;;;;20.94;43.53;101611.72;5061216;27;51184;-50
2022/03/16 08:58:49;;;;;;;;;7.50;6.00;;;;;20.95;43.43;101618.97;5059931;27;51282;-50
2022/03/16 09:01:15;;;;;;;;;4.50;4.50;;;;;20.94;43.77;101616.38;5061078;27;51206;-52
2022/03/16 09:03:40;;;;;;;;;9.00;6.25;;;;;20.94;43.69;101620.00;5062089;27;51279;-50
2022/03/16 09:06:05;;;;;;;;;7.50;6.00;;;;;20.95;43.37;101623.63;5057537;28;51552;-48
2022/03/16 09:08:31;;;;;;;;;9.50;8.25;;;;;20.94;43.71;101625.50;5053988;27;51151;-47
2022/03/16 09:10:57;;;;;;;;;7.00;5.00;;;;;20.96;43.92;101625.31;5058490;28;51493;-52
2022/03/16 09:13:23;;;;;;;;;7.00;6.75;;;;;20.96;43.63;101617.06;5059216;28;51774;-50
2022/03/16 09:15:51;;;;;;;;;9.50;7.00;;;;;20.97;44.01;101622.34;5056352;27;51341;-51
2022/03/16 09:18:18;;;;;;;;;11.50;8.25;;;;;20.99;43.52;101613.88;5057860;27;52022;-51
2022/03/16 09:20:44;;;;;;;;;7.50;6.25;;;;;20.99;43.71;101619.38;5059726;27;51288;-50
2022/03/16 09:23:10;;;;;;;;;8.50;7.00;;;;;20.99;43.91;101619.38;5058632;27;52598;-50
2022/03/16 09:25:36;;;;;;;;;7.00;7.00;;;;;21.00;43.81;101612.81;5056432;27;52092;-51
2022/03/16 09:28:01;;;;;;;;;7.00;7.00;;;;;21.01;43.91;101609.00;5055949;27;51164;-49
2022/03/16 09:30:27;;;;;;;;;9.25;6.25;;;;;21.01;43.74;101611.75;5056464;27;51224;-49
2022/03/16 09:32:57;;;;;;;;;7.75;7.50;;;;;21.01;43.73;101606.25;5062920;27;51353;-51
2022/03/16 09:35:23;;;;;;;;;12.25;7.00;;;;;21.01;43.72;101620.03;5059521;27;51326;-49
2022/03/16 09:37:50;;;;;;;;;8.00;8.00;;;;;21.02;43.96;101629.97;5063401;27;51297;-50
2022/03/16 09:40:17;;;;;;;;;8.00;6.50;;;;;21.00;43.93;101621.94;5057014;27;51760;-48
2022/03/16 09:42:45;;;;;;;;;9.00;9.00;;;;;21.00;43.53;101627.44;5067254;27;53493;-52
2022/03/16 09:45:17;;;;;;;;;8.75;6.75;;;;;20.98;43.61;101624.06;5057634;27;51425;-51
2022/03/16 09:47:44;;;;;;;;;7.00;7.00;;;;;20.98;43.73;101614.94;5060206;27;52861;-49
2022/03/16 09:50:10;;;;;;;;;8.00;8.00;;;;;20.95;43.50;101607.09;5062471;27;51503;-49
2022/03/16 09:52:36;;;;;;;;;8.50;8.00;;;;;20.94;43.82;101610.88;5058282;28;51242;-48
2022/03/16 09:55:05;;;;;;;;;8.00;7.00;;;;;20.92;43.70;101607.50;5059747;28;51334;-53
2022/03/16 09:57:30;;;;;;;;;7.75;7.25;;;;;20.89;43.70;101603.25;5067635;27;51966;-52
2022/03/16 09:59:56;;;;;;;;;7.00;6.50;;;;;20.86;43.84;101595.41;5058555;27;51204;-51
2022/03/16 10:02:21;;;;;;;;;6.75;6.75;;;;;20.86;44.28;101602.81;5061110;27;54808;-49
2022/03/16 10:04:47;;;;;;;;;8.00;6.75;;;;;20.82;43.83;101599.63;5062491;27;51267;-48
2022/03/16 10:07:13;;;;;;;;;9.75;6.75;;;;;20.81;43.86;101597.91;5057489;27;51939;-50
2022/03/16 10:15:19;;;;;;;;;8.75;7.25;;;;;20.76;43.96;101597.72;5063889;27;51209;-48
2022/03/16 10:17:49;;;;;;;;;9.25;7.75;;;;;20.74;44.42;101597.06;5058535;27;51942;-50
2022/03/16 10:20:18;;;;;;;;;9.25;8.00;;;;;20.71;44.34;101601.06;5063396;28;51271;-52
2022/03/16 10:23:02;;;;;;;;;8.75;8.75;;;;;20.70;44.34;101588.34;5061553;27;51288;-48
2022/03/16 10:25:31;;;;;;;;;9.00;8.00;;;;;20.69;44.22;101591.31;5059197;27;51278;-48
2022/03/16 10:28:10;;;;;;;;;6.00;6.00;;;;;20.67;43.93;101588.78;5063900;27;51946;-48
2022/03/16 10:30:37;;;;;;;;;8.25;8.25;;;;;20.65;44.07;101588.13;5071771;27;51390;-50
2022/03/16 10:33:03;;;;;;;;;9.00;7.25;;;;;20.65;44.18;101588.13;5058738;27;51331;-52
2022/03/16 10:35:28;;;;;;;;;8.25;7.00;;;;;20.64;44.27;101600.22;5057578;28;51131;-52
2022/03/16 10:38:07;;;;;;;;;8.50;8.00;;;;;20.62;44.36;101598.69;5064365;27;51103;-47
2022/03/16 10:40:32;;;;;;;;;11.25;9.25;;;;;20.60;44.13;101596.16;5059536;27;51203;-49
2022/03/16 10:48:25;;;;;;;;;8.75;7.00;;;;;20.59;44.21;101582.59;5054029;27;51855;-50
2022/03/16 10:51:02;;;;;;;;;10.00;8.00;;;;;20.60;44.43;101582.38;5054937;27;51202;-51
2022/03/16 10:53:31;;;;;;;;;8.00;6.75;;;;;20.61;44.21;101581.31;5054536;28;51156;-51
2022/03/16 10:55:59;;;;;;;;;7.50;7.00;;;;;20.62;44.33;101579.41;5062693;27;51798;-47
2022/03/16 10:58:26;;;;;;;;;9.25;7.00;;;;;20.63;44.49;101573.72;5059802;27;51338;-48
2022/03/16 11:00:52;;;;;;;;;10.00;9.00;;;;;20.64;44.07;101561.66;5064138;27;51254;-49
2022/03/16 11:03:22;;;;;;;;;10.00;8.50;;;;;20.67;44.20;101552.13;5063225;27;51242;-52
2022/03/16 11:05:48;;;;;;;;;12.25;11.00;;;;;20.69;44.45;101548.13;5066465;27;51500;-49
2022/03/16 11:08:14;;;;;;;;;9.00;8.25;;;;;20.72;44.17;101547.69;5057384;27;52645;-47
2022/03/16 11:10:42;;;;;;;;;6.50;6.50;;;;;20.73;44.40;101548.53;5058680;27;51150;-52
2022/03/16 11:15:56;;;;;;;;;7.00;7.00;;;;;20.75;44.61;101535.44;5055867;28;51336;-51
2022/03/16 11:18:23;;;;;;;;;9.00;8.00;;;;;20.77;44.16;101532.47;5058958;27;52620;-50
2022/03/16 11:20:52;;;;;;;;;8.00;8.00;;;;;20.80;44.14;101540.31;5062045;27;51297;-50
2022/03/16 11:26:15;;;;;;;;;11.00;9.00;;;;;20.80;44.43;101530.16;5066619;28;51222;-49
2022/03/16 11:28:53;;;;;;;;;8.50;7.25;;;;;20.82;43.93;101539.03;5068655;27;52620;-50
2022/03/16 11:31:29;;;;;;;;;8.00;8.00;;;;;20.83;44.41;101532.47;5065696;28;51380;-50
2022/03/16 11:33:55;;;;;;;;;12.50;9.00;;;;;20.84;44.05;101530.56;5062269;27;51082;-51
2022/03/16 11:37:01;;;;;;;;;12.25;9.25;;;;;20.85;44.19;101524.03;5070001;27;51147;-52
2022/03/16 11:39:39;;;;;;;;;14.75;14.75;;;;;20.85;44.38;101513.00;5062553;28;53241;-49